Time;durP1;ratioP1;P1;durP2;ratioP2;P2;SDS_P1;SDS_P2;PMS_P1;PMS_P2;Temp;Humidity;BMP_temperature;BMP_pressure;BME280_temperature;BME280_humidity;BME280_pressure;Samples;Min_cycle;Max_cycle;Signal;HPM_P1;HPM_P2
2023/12/29 00:02:29;;;;;;;5.93;1.70;;;11.10;99.90;;;;;;5044002;28;20496;-78
2023/12/29 00:04:59;;;;;;;4.90;2.30;;;11.10;99.90;;;;;;5043755;28;21011;-78
2023/12/29 00:07:29;;;;;;;4.40;1.40;;;11.20;99.90;;;;;;5044853;28;20535;-78
2023/12/29 00:09:56;;;;;;;7.90;1.50;;;11.10;99.90;;;;;;5043267;28;21162;-79
2023/12/29 00:12:23;;;;;;;8.30;1.70;;;11.20;99.90;;;;;;5041746;28;20445;-79
2023/12/29 00:14:50;;;;;;;5.50;1.73;;;11.00;99.90;;;;;;5041768;28;20535;-79
2023/12/29 00:17:16;;;;;;;5.30;1.17;;;11.10;99.90;;;;;;5042527;28;20503;-79
2023/12/29 00:19:44;;;;;;;6.03;1.87;;;11.10;99.90;;;;;;5039024;28;20449;-79
2023/12/29 00:22:11;;;;;;;4.20;1.50;;;11.10;99.90;;;;;;5035118;28;20483;-79
2023/12/29 00:24:42;;;;;;;5.13;1.30;;;11.20;99.90;;;;;;5043703;28;20531;-79
2023/12/29 00:27:09;;;;;;;7.73;1.40;;;11.10;99.90;;;;;;5042191;28;20475;-78
2023/12/29 00:29:35;;;;;;;2.30;1.00;;;11.10;99.90;;;;;;5043242;28;20491;-79
2023/12/29 00:32:05;;;;;;;6.03;1.20;;;11.10;99.90;;;;;;5043617;28;20911;-79
2023/12/29 00:34:32;;;;;;;3.73;1.27;;;11.10;99.90;;;;;;5041452;28;20541;-79
2023/12/29 00:37:00;;;;;;;5.30;2.10;;;11.10;99.90;;;;;;5043013;28;20547;-78
2023/12/29 00:39:30;;;;;;;3.10;1.20;;;11.20;99.90;;;;;;5033500;28;20456;-78
2023/12/29 00:41:59;;;;;;;5.17;1.33;;;11.20;99.90;;;;;;5041153;28;20518;-79
2023/12/29 00:44:26;;;;;;;4.63;1.27;;;11.20;99.90;;;;;;5042010;28;20452;-78
2023/12/29 00:46:52;;;;;;;7.10;1.70;;;11.20;99.90;;;;;;5040187;28;20457;-80
2023/12/29 00:49:21;;;;;;;4.27;1.20;;;11.10;99.90;;;;;;5037516;28;20502;-77
2023/12/29 00:51:49;;;;;;;4.40;1.70;;;11.20;99.90;;;;;;5037559;28;20496;-80
2023/12/29 00:54:17;;;;;;;7.30;1.53;;;11.20;99.90;;;;;;5042722;28;20488;-79
2023/12/29 00:56:52;;;;;;;4.30;1.80;;;11.20;99.90;;;;;;5041950;28;20461;-80
2023/12/29 00:59:22;;;;;;;3.97;1.47;;;11.20;99.90;;;;;;5041636;28;20892;-77
2023/12/29 01:01:49;;;;;;;5.30;1.80;;;11.20;99.90;;;;;;5042825;28;20479;-79
2023/12/29 01:04:15;;;;;;;4.77;1.50;;;11.20;99.90;;;;;;5041646;28;20642;-79
2023/12/29 01:06:42;;;;;;;3.80;1.33;;;11.10;99.90;;;;;;5039259;28;20471;-78
2023/12/29 01:09:11;;;;;;;3.07;1.00;;;11.20;99.90;;;;;;5034630;28;20517;-80
2023/12/29 01:11:42;;;;;;;3.30;1.37;;;11.20;99.90;;;;;;5043334;28;20894;-80
2023/12/29 01:14:09;;;;;;;2.00;1.27;;;11.20;99.90;;;;;;5041518;28;20494;-79
2023/12/29 01:16:35;;;;;;;6.00;1.20;;;11.20;99.90;;;;;;5042700;28;20562;-79
2023/12/29 01:19:02;;;;;;;4.33;1.30;;;11.20;99.90;;;;;;5041553;28;20529;-77
2023/12/29 01:21:33;;;;;;;5.13;1.33;;;11.20;99.90;;;;;;5033054;28;20473;-79
2023/12/29 01:24:00;;;;;;;4.03;1.60;;;11.20;99.90;;;;;;5042057;28;20467;-78
2023/12/29 01:26:27;;;;;;;9.30;1.90;;;11.20;99.90;;;;;;5034418;28;20487;-79
2023/12/29 01:28:55;;;;;;;4.30;1.20;;;11.20;99.90;;;;;;5043227;28;20885;-79
2023/12/29 01:31:23;;;;;;;6.13;1.80;;;11.20;99.90;;;;;;5043343;28;20472;-79
2023/12/29 01:33:50;;;;;;;4.53;1.60;;;11.20;99.90;;;;;;5043472;28;20488;-78
2023/12/29 01:36:18;;;;;;;5.77;1.33;;;11.20;99.90;;;;;;5042739;28;20732;-79
2023/12/29 01:38:46;;;;;;;4.10;1.10;;;11.20;99.90;;;;;;5035845;28;20449;-77
2023/12/29 01:41:14;;;;;;;3.60;1.80;;;11.20;99.90;;;;;;5041547;28;20510;-78
2023/12/29 01:44:18;;;;;;;5.13;2.10;;;11.20;99.90;;;;;;5041851;28;20445;-79
2023/12/29 01:46:45;;;;;;;5.23;2.00;;;11.20;99.90;;;;;;5037147;28;20537;-78
2023/12/29 01:49:13;;;;;;;3.13;1.30;;;11.20;99.90;;;;;;5043074;28;20486;-79
2023/12/29 01:51:40;;;;;;;2.67;1.10;;;11.10;99.90;;;;;;5042222;28;20476;-79
2023/12/29 01:54:06;;;;;;;7.10;1.60;;;11.10;99.90;;;;;;5042040;28;20516;-79
2023/12/29 01:56:33;;;;;;;4.83;1.73;;;11.10;99.90;;;;;;5033328;28;21231;-80
2023/12/29 01:59:00;;;;;;;4.70;1.30;;;10.90;99.90;;;;;;5040483;28;20459;-79
2023/12/29 02:01:29;;;;;;;8.80;1.80;;;10.70;99.90;;;;;;5039574;28;20503;-79
2023/12/29 02:03:55;;;;;;;5.87;1.87;;;10.50;99.90;;;;;;5038565;28;20524;-78
2023/12/29 02:06:23;;;;;;;4.63;1.70;;;10.30;99.90;;;;;;5039141;28;20476;-79
2023/12/29 02:08:51;;;;;;;8.47;1.90;;;10.20;99.90;;;;;;5038567;28;20554;-78
2023/12/29 02:11:18;;;;;;;6.30;1.73;;;10.10;99.90;;;;;;5038087;28;20484;-79
2023/12/29 02:13:45;;;;;;;9.00;2.07;;;10.00;99.90;;;;;;5038825;28;20560;-79
2023/12/29 02:16:19;;;;;;;3.50;1.30;;;10.00;99.90;;;;;;5038481;28;20471;-78
2023/12/29 02:18:51;;;;;;;5.17;1.90;;;9.90;99.90;;;;;;5039449;28;20936;-78
2023/12/29 02:21:17;;;;;;;7.10;2.50;;;9.90;99.90;;;;;;5039827;28;20563;-80
2023/12/29 02:23:44;;;;;;;15.90;2.73;;;9.80;99.90;;;;;;5039935;28;20451;-79
2023/12/29 02:26:16;;;;;;;8.53;1.53;;;9.60;99.90;;;;;;5038223;28;20567;-79
2023/12/29 02:28:49;;;;;;;11.90;2.17;;;9.60;99.90;;;;;;5037965;28;20556;-79
2023/12/29 02:31:20;;;;;;;4.37;1.77;;;9.50;99.90;;;;;;5036286;28;20578;-80
2023/12/29 02:33:48;;;;;;;9.00;1.73;;;9.50;99.90;;;;;;5035003;28;20484;-79
2023/12/29 02:36:17;;;;;;;8.83;2.37;;;9.40;99.90;;;;;;5034282;28;20464;-79
2023/12/29 02:38:45;;;;;;;6.87;2.97;;;9.40;99.90;;;;;;5034435;28;20459;-79
2023/12/29 02:41:13;;;;;;;9.70;2.10;;;9.40;99.90;;;;;;5034536;28;20476;-80
2023/12/29 02:43:40;;;;;;;4.63;1.73;;;9.40;99.90;;;;;;5034742;28;20467;-79
2023/12/29 02:46:07;;;;;;;9.23;3.13;;;9.30;99.90;;;;;;5035618;28;20926;-78
2023/12/29 02:48:34;;;;;;;9.53;2.53;;;9.30;99.90;;;;;;5035673;28;20471;-78
2023/12/29 02:51:01;;;;;;;9.23;2.50;;;9.30;99.90;;;;;;5035613;28;20487;-79
2023/12/29 02:53:27;;;;;;;7.60;1.70;;;9.30;99.90;;;;;;5026301;28;20502;-79
2023/12/29 02:55:54;;;;;;;8.47;2.17;;;9.30;99.90;;;;;;5034765;28;20455;-79
2023/12/29 02:58:22;;;;;;;7.03;3.10;;;9.20;99.90;;;;;;5034715;28;20463;-78
2023/12/29 03:00:49;;;;;;;6.07;1.83;;;9.20;99.90;;;;;;5034169;28;20505;-79
2023/12/29 03:03:16;;;;;;;7.83;1.70;;;9.20;99.90;;;;;;5034253;28;20466;-79
2023/12/29 03:05:42;;;;;;;7.10;1.67;;;9.20;99.90;;;;;;5034417;28;20466;-79
2023/12/29 03:08:09;;;;;;;6.73;1.60;;;9.20;99.90;;;;;;5033688;28;20524;-79
2023/12/29 03:10:36;;;;;;;4.50;1.50;;;9.30;99.90;;;;;;5038309;28;20484;-79
2023/12/29 03:13:04;;;;;;;3.40;1.70;;;9.20;99.90;;;;;;5037138;28;20832;-78
2023/12/29 03:15:32;;;;;;;7.40;2.20;;;9.30;99.90;;;;;;5035671;28;20886;-79
2023/12/29 03:17:58;;;;;;;4.07;2.00;;;9.30;99.90;;;;;;5033450;28;20464;-79
2023/12/29 03:20:25;;;;;;;4.23;1.80;;;9.30;99.90;;;;;;5033213;28;20486;-80
2023/12/29 03:22:52;;;;;;;4.90;1.90;;;9.30;99.90;;;;;;5035103;28;20455;-79
2023/12/29 03:25:19;;;;;;;7.90;2.83;;;9.30;99.90;;;;;;5034838;28;20990;-79
2023/12/29 03:27:46;;;;;;;9.33;2.23;;;9.30;99.90;;;;;;5035168;28;20463;-78
2023/12/29 03:30:13;;;;;;;6.70;1.80;;;9.30;99.90;;;;;;5033600;28;20474;-79
2023/12/29 03:32:41;;;;;;;6.87;2.37;;;9.30;99.90;;;;;;5034494;28;20462;-78
2023/12/29 03:35:08;;;;;;;9.80;2.27;;;9.30;99.90;;;;;;5035000;28;20505;-78
2023/12/29 03:37:35;;;;;;;6.90;1.87;;;9.30;99.90;;;;;;5038527;28;20553;-79
2023/12/29 03:40:01;;;;;;;2.70;1.87;;;9.40;99.90;;;;;;5035488;28;20453;-79
2023/12/29 03:42:28;;;;;;;7.70;2.83;;;9.40;99.90;;;;;;5029857;28;20547;-79
2023/12/29 03:44:55;;;;;;;2.70;1.70;;;9.40;99.90;;;;;;5035219;28;20451;-78
2023/12/29 03:47:22;;;;;;;9.37;2.00;;;9.50;99.90;;;;;;5036789;28;20457;-79
2023/12/29 03:49:50;;;;;;;6.17;2.00;;;9.50;99.90;;;;;;5040315;28;20900;-80
2023/12/29 03:52:17;;;;;;;5.37;1.90;;;9.50;99.90;;;;;;5039597;28;20476;-80
2023/12/29 03:54:43;;;;;;;6.10;1.90;;;9.50;99.90;;;;;;5040440;28;20954;-78
2023/12/29 03:57:10;;;;;;;6.80;1.73;;;9.60;99.90;;;;;;5036151;28;20456;-80
2023/12/29 03:59:38;;;;;;;11.80;2.40;;;9.60;99.90;;;;;;5035197;28;20466;-79
2023/12/29 04:02:04;;;;;;;6.20;2.30;;;9.70;99.90;;;;;;5038580;28;20537;-78
2023/12/29 04:04:31;;;;;;;6.30;2.20;;;9.70;99.90;;;;;;5037118;28;20457;-77
2023/12/29 04:06:59;;;;;;;4.20;1.77;;;9.80;99.90;;;;;;5040070;28;20469;-78
2023/12/29 04:09:26;;;;;;;7.67;1.60;;;9.90;99.90;;;;;;5040101;28;20551;-78
2023/12/29 04:11:53;;;;;;;11.63;1.97;;;9.90;99.90;;;;;;5038073;28;20639;-79
2023/12/29 04:14:20;;;;;;;6.20;1.63;;;9.90;99.90;;;;;;5038407;28;20491;-78
2023/12/29 04:16:48;;;;;;;9.37;2.30;;;10.00;99.90;;;;;;5040363;28;20455;-79
2023/12/29 04:19:15;;;;;;;6.07;1.60;;;10.00;99.90;;;;;;5042546;28;20468;-79
2023/12/29 04:21:41;;;;;;;7.43;1.73;;;10.00;99.90;;;;;;5041526;28;20570;-79
2023/12/29 04:24:09;;;;;;;5.73;1.40;;;10.00;99.90;;;;;;5038997;28;20452;-78
2023/12/29 04:26:36;;;;;;;11.53;2.10;;;10.00;99.90;;;;;;5036452;28;20960;-78
2023/12/29 04:29:03;;;;;;;7.90;3.10;;;10.00;99.90;;;;;;5043094;28;20531;-79
2023/12/29 04:31:30;;;;;;;5.00;1.80;;;10.00;99.90;;;;;;5042736;28;20483;-79
2023/12/29 04:33:57;;;;;;;7.93;2.20;;;10.10;99.90;;;;;;5044474;28;20481;-77
2023/12/29 04:36:24;;;;;;;7.20;1.93;;;10.10;99.90;;;;;;5041857;28;20468;-78
2023/12/29 04:38:51;;;;;;;8.93;1.67;;;10.10;99.90;;;;;;5042629;28;20483;-78
2023/12/29 04:41:19;;;;;;;2.80;1.40;;;10.20;99.90;;;;;;5040800;28;20476;-78
2023/12/29 04:43:45;;;;;;;5.07;2.17;;;10.20;99.90;;;;;;5043960;28;20464;-79
2023/12/29 04:46:12;;;;;;;5.33;1.40;;;10.20;99.90;;;;;;5042860;28;20460;-78
2023/12/29 04:48:39;;;;;;;13.77;2.10;;;10.30;99.90;;;;;;5041876;28;20460;-78
2023/12/29 04:51:06;;;;;;;4.50;1.50;;;10.30;99.90;;;;;;5044640;28;20532;-78
2023/12/29 04:53:33;;;;;;;3.00;1.33;;;10.30;99.90;;;;;;5045381;28;20487;-78
2023/12/29 04:55:59;;;;;;;4.00;1.40;;;10.40;99.90;;;;;;5044417;28;20494;-78
2023/12/29 04:58:27;;;;;;;4.53;1.40;;;10.50;99.90;;;;;;5044436;28;20539;-77
2023/12/29 05:00:54;;;;;;;5.90;1.70;;;10.50;99.90;;;;;;5044813;28;20503;-80
2023/12/29 05:03:21;;;;;;;4.10;1.60;;;10.50;99.90;;;;;;5046704;28;20478;-78
2023/12/29 05:05:48;;;;;;;3.90;1.37;;;10.50;99.90;;;;;;5044664;28;20488;-79
2023/12/29 05:08:15;;;;;;;6.40;2.20;;;10.50;99.90;;;;;;5043908;28;20536;-79
2023/12/29 05:10:42;;;;;;;8.13;1.33;;;10.50;99.90;;;;;;5046100;28;20473;-79
2023/12/29 05:13:09;;;;;;;3.20;1.57;;;10.40;99.90;;;;;;5048902;28;20460;-78
2023/12/29 05:15:37;;;;;;;8.50;1.97;;;10.40;99.90;;;;;;5046542;28;20516;-79
2023/12/29 05:18:04;;;;;;;6.80;1.30;;;10.40;99.90;;;;;;5044508;28;20921;-79
2023/12/29 05:20:30;;;;;;;6.57;1.30;;;10.40;99.90;;;;;;5036303;28;20476;-78
2023/12/29 05:22:57;;;;;;;5.10;1.30;;;10.40;99.90;;;;;;5045018;28;20466;-79
2023/12/29 05:25:24;;;;;;;4.20;1.53;;;10.40;99.90;;;;;;5043774;28;20483;-79
2023/12/29 05:27:51;;;;;;;5.40;1.40;;;10.30;99.90;;;;;;5045064;28;20492;-77
2023/12/29 05:30:18;;;;;;;5.30;1.67;;;10.30;99.90;;;;;;5044749;28;20524;-79
2023/12/29 05:32:46;;;;;;;10.70;2.27;;;10.30;99.90;;;;;;5045774;28;20496;-78
2023/12/29 05:35:13;;;;;;;7.70;1.40;;;10.30;99.90;;;;;;5045483;28;20519;-79
2023/12/29 05:37:40;;;;;;;4.67;1.60;;;10.40;99.90;;;;;;5045826;28;20532;-79
2023/12/29 05:40:08;;;;;;;4.83;1.63;;;10.40;99.90;;;;;;5045434;28;20470;-78
2023/12/29 05:42:34;;;;;;;7.40;1.80;;;10.40;99.90;;;;;;5044931;28;20463;-77
2023/12/29 05:45:02;;;;;;;8.20;1.60;;;10.40;99.90;;;;;;5046279;28;20450;-78
2023/12/29 05:47:28;;;;;;;3.63;1.30;;;10.30;99.90;;;;;;5045624;28;20460;-78
2023/12/29 05:49:57;;;;;;;6.30;1.33;;;10.40;99.90;;;;;;5047155;28;20479;-79
2023/12/29 05:52:24;;;;;;;7.70;2.07;;;10.50;99.90;;;;;;5046946;28;20479;-79
2023/12/29 05:54:51;;;;;;;6.30;1.20;;;10.50;99.90;;;;;;5045595;28;20488;-78
2023/12/29 05:57:18;;;;;;;4.67;1.20;;;10.50;99.90;;;;;;5046719;28;20969;-80
2023/12/29 05:59:45;;;;;;;4.53;1.63;;;10.60;99.90;;;;;;5046696;28;20450;-79
2023/12/29 06:02:12;;;;;;;6.70;1.90;;;10.60;99.90;;;;;;5046024;28;20482;-79
2023/12/29 06:04:38;;;;;;;10.80;2.03;;;10.60;99.90;;;;;;5047139;28;20449;-79
2023/12/29 06:07:07;;;;;;;4.43;1.67;;;10.60;99.90;;;;;;5050118;28;20465;-80
2023/12/29 06:09:33;;;;;;;6.50;2.07;;;10.60;99.90;;;;;;5049702;28;20459;-79
2023/12/29 06:12:00;;;;;;;4.40;1.60;;;10.60;99.90;;;;;;5045199;28;20480;-79
2023/12/29 06:14:27;;;;;;;8.57;2.00;;;10.70;99.90;;;;;;5048121;28;20495;-79
2023/12/29 06:16:54;;;;;;;8.70;1.67;;;10.60;99.90;;;;;;5050158;28;20445;-79
2023/12/29 06:19:21;;;;;;;5.30;2.10;;;10.70;99.90;;;;;;5051757;28;20461;-78
2023/12/29 06:21:48;;;;;;;10.23;2.33;;;10.70;99.90;;;;;;5047482;28;20503;-78
2023/12/29 06:24:16;;;;;;;5.17;1.70;;;10.70;99.90;;;;;;5047979;28;20458;-77
2023/12/29 06:26:44;;;;;;;3.30;1.13;;;10.70;99.90;;;;;;5047419;28;20452;-78
2023/12/29 06:29:11;;;;;;;5.13;1.80;;;10.70;99.90;;;;;;5046203;28;20475;-78
2023/12/29 06:31:41;;;;;;;4.53;1.60;;;10.70;99.90;;;;;;5049566;28;20480;-78
2023/12/29 06:34:08;;;;;;;7.10;1.90;;;10.70;99.90;;;;;;5046805;28;20529;-78
2023/12/29 06:36:35;;;;;;;3.27;1.23;;;10.70;99.90;;;;;;5046893;28;20469;-79
2023/12/29 06:39:03;;;;;;;6.77;1.50;;;10.70;99.90;;;;;;5048170;28;20841;-79
2023/12/29 06:41:31;;;;;;;5.80;1.93;;;10.70;99.90;;;;;;5044687;28;20531;-78
2023/12/29 06:43:58;;;;;;;9.80;2.40;;;10.70;99.90;;;;;;5045389;28;20461;-77
2023/12/29 06:46:25;;;;;;;7.20;1.77;;;10.70;99.90;;;;;;5040385;28;20461;-79
2023/12/29 06:48:51;;;;;;;7.43;1.50;;;10.70;99.90;;;;;;5036374;28;20493;-79
2023/12/29 06:51:19;;;;;;;7.50;1.63;;;10.70;99.90;;;;;;5043278;28;20499;-79
2023/12/29 06:53:47;;;;;;;5.10;1.67;;;10.70;99.90;;;;;;5039374;28;20536;-79
2023/12/29 06:56:15;;;;;;;3.77;1.53;;;10.70;99.90;;;;;;5040423;28;20496;-79
2023/12/29 06:58:44;;;;;;;8.37;1.83;;;10.60;99.90;;;;;;5036204;28;20453;-80
2023/12/29 07:01:11;;;;;;;6.40;2.53;;;10.60;99.90;;;;;;5043097;28;20477;-79
2023/12/29 07:03:37;;;;;;;6.03;1.60;;;10.60;99.90;;;;;;5041067;28;20480;-80
2023/12/29 07:06:05;;;;;;;8.37;2.20;;;10.70;99.90;;;;;;5040597;28;20508;-78
2023/12/29 07:08:32;;;;;;;5.40;1.27;;;10.70;99.90;;;;;;5044801;28;20540;-78
2023/12/29 07:10:59;;;;;;;5.27;1.30;;;10.70;99.90;;;;;;5036268;28;20513;-80
2023/12/29 07:13:26;;;;;;;9.17;1.80;;;10.80;99.90;;;;;;5040547;28;20467;-78
2023/12/29 07:15:54;;;;;;;7.20;1.50;;;10.70;99.90;;;;;;5041838;28;20497;-78
2023/12/29 07:18:21;;;;;;;4.50;1.73;;;10.70;99.90;;;;;;5040506;28;20483;-78
2023/12/29 07:20:48;;;;;;;4.83;1.30;;;10.70;99.90;;;;;;5042298;28;20493;-78
2023/12/29 07:23:15;;;;;;;5.93;1.97;;;10.60;99.90;;;;;;5041567;28;20981;-78
2023/12/29 07:25:42;;;;;;;5.13;1.37;;;10.60;99.90;;;;;;5039515;28;20457;-78
2023/12/29 07:28:09;;;;;;;3.17;1.27;;;10.30;99.90;;;;;;5037468;28;20922;-77
2023/12/29 07:30:36;;;;;;;6.60;1.33;;;10.20;99.90;;;;;;5036955;28;20476;-78
2023/12/29 07:33:04;;;;;;;5.43;1.60;;;10.10;99.90;;;;;;5040673;28;20461;-78
2023/12/29 07:35:31;;;;;;;8.00;1.80;;;9.90;99.90;;;;;;5047200;28;20473;-79
2023/12/29 07:37:58;;;;;;;6.07;1.97;;;9.70;99.90;;;;;;5045615;28;20471;-79
2023/12/29 07:40:25;;;;;;;4.90;1.93;;;9.60;99.90;;;;;;5040085;28;20491;-77
2023/12/29 07:42:52;;;;;;;7.93;2.10;;;9.60;99.90;;;;;;5038843;28;20514;-77
2023/12/29 07:45:20;;;;;;;9.03;2.40;;;9.50;99.90;;;;;;5039939;28;20436;-77
2023/12/29 07:47:46;;;;;;;7.40;2.07;;;9.50;99.90;;;;;;5037921;28;20491;-77
2023/12/29 07:50:15;;;;;;;4.83;1.60;;;9.40;99.90;;;;;;5034300;28;20503;-80
2023/12/29 07:52:43;;;;;;;9.30;1.97;;;9.40;99.90;;;;;;5034990;28;20486;-78
2023/12/29 07:55:09;;;;;;;7.50;2.50;;;9.40;99.90;;;;;;5040548;28;20487;-79
2023/12/29 07:57:36;;;;;;;5.10;1.67;;;9.30;99.90;;;;;;5040624;28;20455;-78
2023/12/29 08:00:06;;;;;;;6.37;1.60;;;9.30;99.90;;;;;;5042541;28;20247;-76
2023/12/29 08:02:33;;;;;;;6.70;1.70;;;9.30;99.90;;;;;;5037187;28;20533;-78
2023/12/29 08:04:59;;;;;;;5.63;1.30;;;9.30;99.90;;;;;;5044865;28;20528;-78
2023/12/29 08:07:28;;;;;;;4.23;1.40;;;9.30;99.90;;;;;;5042946;28;20829;-78
2023/12/29 08:09:54;;;;;;;9.90;2.53;;;9.30;99.90;;;;;;5047223;28;20487;-77
2023/12/29 08:12:21;;;;;;;7.80;2.03;;;9.30;99.90;;;;;;5044868;28;20524;-77
2023/12/29 08:15:02;;;;;;;10.50;2.20;;;9.30;99.90;;;;;;5044038;28;20540;-77
2023/12/29 08:17:30;;;;;;;10.77;2.03;;;9.30;99.90;;;;;;5035342;28;20460;-78
2023/12/29 08:19:59;;;;;;;10.67;1.67;;;9.30;99.90;;;;;;5039122;28;20466;-77
2023/12/29 08:22:32;;;;;;;4.90;1.90;;;9.30;99.90;;;;;;5043639;28;20450;-77
2023/12/29 08:24:59;;;;;;;11.07;1.90;;;9.40;99.90;;;;;;5036662;28;20444;-77
2023/12/29 08:27:26;;;;;;;9.23;1.70;;;9.40;99.90;;;;;;5038349;28;20528;-77
2023/12/29 08:29:53;;;;;;;13.40;1.87;;;9.40;99.90;;;;;;5036480;28;20446;-77
2023/12/29 08:32:20;;;;;;;3.77;1.73;;;9.40;99.90;;;;;;5037453;28;20463;-76
2023/12/29 08:34:47;;;;;;;4.57;1.40;;;9.40;99.90;;;;;;5042678;28;20454;-77
2023/12/29 08:37:19;;;;;;;10.90;1.63;;;9.40;99.90;;;;;;5037627;28;20461;-77
2023/12/29 08:39:47;;;;;;;9.77;1.70;;;9.40;99.90;;;;;;5046117;28;20456;-77
2023/12/29 08:42:14;;;;;;;6.20;1.50;;;9.40;99.90;;;;;;5044852;28;20479;-78
2023/12/29 08:44:43;;;;;;;5.60;1.53;;;9.50;99.90;;;;;;5040956;28;20457;-77
2023/12/29 08:47:10;;;;;;;8.50;1.80;;;9.50;99.90;;;;;;5040360;28;20538;-78
2023/12/29 08:49:37;;;;;;;6.43;1.67;;;9.50;99.90;;;;;;5046612;28;20521;-80
2023/12/29 08:52:04;;;;;;;6.80;2.17;;;9.40;99.90;;;;;;5048958;28;21007;-79
2023/12/29 08:54:31;;;;;;;5.83;1.60;;;9.50;99.90;;;;;;5047979;28;20462;-77
2023/12/29 08:56:59;;;;;;;4.30;1.53;;;9.50;99.90;;;;;;5043589;28;20554;-78
2023/12/29 08:59:26;;;;;;;5.20;1.77;;;9.50;99.90;;;;;;5039021;28;20457;-79
2023/12/29 09:01:53;;;;;;;9.17;1.70;;;9.50;99.90;;;;;;5036487;28;20469;-79
2023/12/29 09:04:20;;;;;;;3.90;1.20;;;9.50;99.90;;;;;;5037085;28;20483;-78
2023/12/29 09:06:47;;;;;;;4.20;1.33;;;9.50;99.90;;;;;;5035660;28;20450;-78
2023/12/29 09:09:13;;;;;;;5.00;1.40;;;9.60;99.90;;;;;;5032846;28;20463;-77
2023/12/29 09:11:40;;;;;;;4.10;1.10;;;9.60;99.90;;;;;;5038427;28;20476;-78
2023/12/29 09:14:09;;;;;;;3.57;1.57;;;9.60;99.90;;;;;;5036945;28;20460;-78
2023/12/29 09:16:36;;;;;;;4.00;1.30;;;9.60;99.90;;;;;;5037798;28;20488;-78
2023/12/29 09:19:04;;;;;;;3.50;1.13;;;9.60;99.90;;;;;;5038284;28;20593;-77
2023/12/29 09:21:59;;;;;;;3.03;0.90;;;9.70;99.90;;;;;;5039999;28;20487;-79
2023/12/29 09:24:26;;;;;;;2.37;1.00;;;9.70;99.90;;;;;;5040257;28;20487;-79
2023/12/29 09:26:54;;;;;;;6.57;1.77;;;9.80;99.90;;;;;;5039140;28;20458;-78
2023/12/29 09:29:22;;;;;;;6.70;1.43;;;9.80;99.90;;;;;;5039132;28;20468;-75
2023/12/29 09:31:49;;;;;;;3.73;1.07;;;9.90;99.90;;;;;;5038545;28;20516;-77
2023/12/29 09:34:15;;;;;;;2.33;1.03;;;9.90;99.90;;;;;;5038105;28;20464;-79
2023/12/29 09:36:42;;;;;;;4.53;1.10;;;9.90;99.90;;;;;;5039100;28;20488;-79
2023/12/29 09:39:09;;;;;;;13.90;6.90;;;9.90;99.90;;;;;;5038935;28;20464;-78
2023/12/29 09:41:40;;;;;;;6.57;1.00;;;9.90;99.90;;;;;;5039687;28;20494;-79
2023/12/29 09:44:14;;;;;;;4.47;0.90;;;9.90;99.90;;;;;;5041236;28;20532;-79
2023/12/29 09:46:43;;;;;;;1.37;0.63;;;9.90;99.90;;;;;;5038388;28;20452;-78
2023/12/29 09:49:10;;;;;;;2.13;0.80;;;9.90;99.90;;;;;;5038697;28;20467;-79
2023/12/29 09:51:37;;;;;;;2.47;1.00;;;9.90;99.90;;;;;;5037894;28;20483;-79
2023/12/29 09:54:05;;;;;;;1.83;0.90;;;10.00;99.90;;;;;;5039761;28;20528;-79
2023/12/29 09:56:32;;;;;;;2.37;0.80;;;10.00;99.90;;;;;;5038805;28;20941;-78
2023/12/29 09:58:59;;;;;;;2.77;1.00;;;10.00;99.90;;;;;;5038205;28;20466;-78
2023/12/29 10:01:29;;;;;;;2.43;0.90;;;9.90;99.90;;;;;;5038110;28;20567;-79
2023/12/29 10:03:57;;;;;;;1.87;0.77;;;9.90;99.90;;;;;;5037441;28;20539;-78
2023/12/29 10:06:25;;;;;;;2.50;0.90;;;9.80;99.90;;;;;;5036178;28;20451;-78
2023/12/29 10:08:53;;;;;;;1.50;0.80;;;9.80;99.90;;;;;;5033634;28;21027;-78
2023/12/29 10:11:22;;;;;;;3.00;0.87;;;9.80;99.90;;;;;;5028546;28;20566;-78
2023/12/29 10:13:51;;;;;;;3.40;1.00;;;9.80;99.90;;;;;;5039020;28;20448;-78
2023/12/29 10:16:25;;;;;;;1.40;0.80;;;9.80;99.90;;;;;;5037310;28;20488;-79
2023/12/29 10:19:09;;;;;;;2.43;0.80;;;9.70;99.90;;;;;;5036972;28;20546;-78
2023/12/29 10:21:48;;;;;;;2.50;0.87;;;9.70;99.90;;;;;;5033307;28;20480;-79
2023/12/29 10:24:20;;;;;;;2.90;1.00;;;9.70;99.90;;;;;;5038041;28;20459;-79
2023/12/29 10:26:47;;;;;;;1.50;0.90;;;9.70;99.90;;;;;;5039214;28;20454;-79
2023/12/29 10:29:14;;;;;;;3.30;0.80;;;9.70;99.90;;;;;;5036343;28;20449;-79
2023/12/29 10:31:41;;;;;;;1.67;0.83;;;9.70;99.90;;;;;;5037257;28;20555;-78
2023/12/29 10:34:28;;;;;;;6.53;0.90;;;9.70;99.90;;;;;;5037008;28;20994;-77
2023/12/29 10:36:56;;;;;;;1.40;0.80;;;9.70;99.90;;;;;;5037764;28;21095;-78
2023/12/29 10:39:23;;;;;;;4.73;0.90;;;9.70;99.90;;;;;;5034700;28;20451;-78
2023/12/29 10:41:50;;;;;;;2.07;0.70;;;9.70;99.90;;;;;;5036896;28;21119;-77
2023/12/29 10:44:17;;;;;;;4.50;0.83;;;9.80;99.90;;;;;;5035315;28;20458;-77
2023/12/29 10:46:44;;;;;;;2.13;0.90;;;9.80;99.90;;;;;;5037098;28;20456;-78
2023/12/29 10:49:12;;;;;;;1.50;0.70;;;9.80;99.90;;;;;;5034296;28;20468;-78
2023/12/29 10:51:41;;;;;;;4.67;1.20;;;9.80;99.90;;;;;;5037674;28;20859;-77
2023/12/29 10:54:30;;;;;;;1.80;0.70;;;9.80;99.90;;;;;;5037551;28;20464;-78
2023/12/29 10:57:04;;;;;;;1.70;0.70;;;9.90;99.90;;;;;;5033781;28;20568;-79
2023/12/29 10:59:31;;;;;;;1.97;0.90;;;9.90;99.90;;;;;;5028902;28;20835;-78
2023/12/29 11:01:57;;;;;;;5.77;1.03;;;10.00;99.90;;;;;;5036719;28;20560;-77
2023/12/29 11:04:24;;;;;;;2.57;1.30;;;10.00;99.90;;;;;;5035806;28;20451;-79
2023/12/29 11:06:52;;;;;;;2.57;1.20;;;10.10;99.90;;;;;;5036638;28;20448;-78
2023/12/29 11:09:29;;;;;;;6.40;1.40;;;10.20;99.90;;;;;;5036488;28;20448;-78
2023/12/29 11:11:58;;;;;;;3.20;1.20;;;10.30;99.90;;;;;;5036877;28;20479;-78
2023/12/29 11:14:26;;;;;;;2.23;1.07;;;10.40;99.90;;;;;;5037326;28;20457;-79
2023/12/29 11:16:54;;;;;;;2.00;1.03;;;10.40;99.90;;;;;;5036409;28;20492;-78
2023/12/29 11:19:22;;;;;;;2.37;1.00;;;10.50;99.90;;;;;;5037411;28;20551;-78
2023/12/29 11:21:53;;;;;;;1.80;0.73;;;10.60;99.90;;;;;;5037629;28;20482;-79
2023/12/29 11:24:20;;;;;;;3.53;1.20;;;10.70;99.90;;;;;;5038411;28;20467;-78
2023/12/29 11:26:47;;;;;;;3.30;1.57;;;10.80;99.90;;;;;;5038154;28;20523;-78
2023/12/29 11:29:14;;;;;;;1.80;0.77;;;11.00;99.90;;;;;;5036451;28;20457;-78
2023/12/29 11:31:41;;;;;;;2.43;0.87;;;11.00;99.90;;;;;;5035880;28;20545;-78
2023/12/29 11:34:13;;;;;;;3.87;1.07;;;11.00;99.90;;;;;;5035822;28;20467;-77
2023/12/29 11:36:44;;;;;;;1.70;0.90;;;11.10;99.90;;;;;;5027636;28;20492;-78
2023/12/29 11:39:21;;;;;;;3.90;1.57;;;11.30;99.90;;;;;;5035488;28;20580;-79
2023/12/29 11:41:57;;;;;;;1.70;1.00;;;11.40;99.90;;;;;;5042691;28;20483;-79
2023/12/29 11:48:24;;;;;;;4.60;1.00;;;11.40;99.90;;;;;;4974414;28;20464;-78
2023/12/29 11:50:50;;;;;;;5.13;1.23;;;11.40;99.90;;;;;;4980496;28;20491;-79
2023/12/29 11:53:33;;;;;;;6.07;1.30;;;11.10;99.90;;;;;;5043364;28;20453;-78
2023/12/29 11:56:03;;;;;;;2.60;1.10;;;11.10;99.90;;;;;;5043144;28;20456;-78
2023/12/29 11:58:30;;;;;;;3.07;1.00;;;11.20;99.90;;;;;;5043131;28;20546;-79
2023/12/29 12:00:58;;;;;;;3.00;1.40;;;11.20;99.90;;;;;;5042819;28;20481;-79
2023/12/29 12:03:26;;;;;;;4.80;1.13;;;11.30;99.90;;;;;;5043421;28;20463;-79
2023/12/29 12:05:54;;;;;;;6.70;1.20;;;11.30;99.90;;;;;;5043421;28;20879;-78
2023/12/29 12:08:35;;;;;;;2.03;1.13;;;11.30;99.90;;;;;;5040291;28;20496;-79
2023/12/29 12:11:39;;;;;;;3.40;1.00;;;11.40;99.90;;;;;;5040348;28;21011;-79
2023/12/29 12:14:07;;;;;;;2.67;1.03;;;11.40;99.90;;;;;;5041728;28;20460;-78
2023/12/29 12:16:52;;;;;;;1.60;0.93;;;11.40;99.90;;;;;;5041530;28;20480;-79
2023/12/29 12:19:21;;;;;;;4.80;1.10;;;11.40;99.90;;;;;;5042372;28;20461;-78
2023/12/29 12:21:59;;;;;;;5.33;1.23;;;11.30;99.90;;;;;;5039354;28;22511;-78
2023/12/29 12:24:28;;;;;;;2.83;1.10;;;11.40;99.90;;;;;;5047042;28;20710;-79
2023/12/29 12:26:55;;;;;;;3.70;1.07;;;11.30;99.90;;;;;;5041610;28;20472;-78
2023/12/29 12:29:25;;;;;;;3.80;1.00;;;11.40;99.90;;;;;;5044126;28;20455;-78
2023/12/29 12:31:56;;;;;;;4.67;1.30;;;11.30;99.90;;;;;;5045116;28;20507;-79
2023/12/29 12:34:23;;;;;;;6.97;1.20;;;11.20;99.90;;;;;;5043039;28;20514;-79
2023/12/29 12:36:51;;;;;;;2.10;1.20;;;11.00;99.90;;;;;;5041389;28;20485;-79
2023/12/29 12:39:18;;;;;;;6.70;1.13;;;11.10;99.90;;;;;;5042744;28;20459;-78
2023/12/29 12:41:45;;;;;;;2.60;1.53;;;;;;;;;;5043230;28;20512;-78
2023/12/29 12:44:13;;;;;;;17.23;8.13;;;10.60;99.90;;;;;;5039701;28;20455;-78
2023/12/29 12:46:51;;;;;;;3.50;1.40;;;10.40;99.90;;;;;;5045331;28;20555;-78
2023/12/29 12:49:21;;;;;;;2.37;1.53;;;10.20;99.90;;;;;;5050389;28;20453;-78
2023/12/29 12:51:50;;;;;;;2.53;1.10;;;;;;;;;;5043584;28;20516;-78
2023/12/29 12:54:19;;;;;;;7.87;3.10;;;10.20;99.90;;;;;;5041624;28;20499;-77
2023/12/29 12:56:47;;;;;;;4.40;1.60;;;10.30;99.90;;;;;;5042544;28;21022;-78
2023/12/29 12:59:16;;;;;;;5.07;1.70;;;;;;;;;;5043094;28;20458;-78
2023/12/29 13:01:44;;;;;;;2.87;1.20;;;10.00;99.90;;;;;;5046218;28;20514;-77